createdAt,value
2019-06-08T00:01:44.530Z,22.40
2019-06-08T00:04:13.019Z,22.40
2019-06-08T00:06:41.408Z,22.30
2019-06-08T00:09:09.924Z,22.30
2019-06-08T00:11:38.437Z,22.30
2019-06-08T00:14:06.817Z,22.30
2019-06-08T00:16:35.337Z,22.20
2019-06-08T00:19:03.735Z,22.30
2019-06-08T00:21:32.169Z,22.20
2019-06-08T00:24:00.579Z,22.20
2019-06-08T00:26:29.017Z,22.20
2019-06-08T00:28:57.488Z,22.20
2019-06-08T00:31:25.869Z,22.10
2019-06-08T00:33:54.288Z,22.20
2019-06-08T00:36:23.076Z,22.10
2019-06-08T00:38:51.590Z,22.10
2019-06-08T00:41:20.721Z,22.00
2019-06-08T00:43:51.426Z,22.00
2019-06-08T00:46:19.810Z,22.00
2019-06-08T00:48:48.299Z,22.00
2019-06-08T00:51:16.791Z,21.90
2019-06-08T00:53:45.185Z,21.90
2019-06-08T00:56:13.575Z,21.90
2019-06-08T00:58:41.947Z,22.00
2019-06-08T01:01:10.347Z,22.00
2019-06-08T01:03:38.765Z,21.90
2019-06-08T01:06:07.149Z,21.90
2019-06-08T01:08:35.535Z,22.00
2019-06-08T01:11:03.959Z,21.90
2019-06-08T01:13:32.347Z,21.90
2019-06-08T01:16:00.723Z,22.00
2019-06-08T01:18:29.381Z,22.00
2019-06-08T01:20:57.811Z,21.90
2019-06-08T01:23:26.217Z,21.90
2019-06-08T01:25:54.621Z,21.90
2019-06-08T01:28:23.956Z,21.90
2019-06-08T01:30:52.431Z,21.90
2019-06-08T01:33:20.782Z,21.90
2019-06-08T01:35:49.193Z,21.80
2019-06-08T01:38:17.589Z,21.80
2019-06-08T01:40:45.965Z,21.80
2019-06-08T01:43:14.397Z,21.80
2019-06-08T01:45:42.772Z,21.80
2019-06-08T01:48:19.950Z,21.80
2019-06-08T01:50:41.217Z,21.80
2019-06-08T01:53:09.600Z,21.80
2019-06-08T01:55:37.983Z,21.70
2019-06-08T01:58:06.379Z,21.70
2019-06-08T02:00:39.289Z,21.70
2019-06-08T02:03:04.832Z,21.60
2019-06-08T02:05:34.457Z,21.60
2019-06-08T02:08:02.917Z,21.60
2019-06-08T02:10:31.311Z,21.60
2019-06-08T02:12:59.693Z,21.60
2019-06-08T02:15:29.716Z,21.50
2019-06-08T02:17:58.096Z,21.50
2019-06-08T02:20:26.498Z,21.50
2019-06-08T02:22:54.896Z,21.40
2019-06-08T02:25:29.247Z,21.30
2019-06-08T02:27:57.832Z,21.30
2019-06-08T02:30:30.510Z,21.30
2019-06-08T02:32:59.424Z,21.30
2019-06-08T02:35:28.004Z,21.30
2019-06-08T02:37:56.386Z,21.30
2019-06-08T02:40:24.785Z,21.30
2019-06-08T02:42:53.171Z,21.30
2019-06-08T02:45:21.577Z,21.30
2019-06-08T02:47:50.003Z,21.30
2019-06-08T02:50:21.636Z,21.30
2019-06-08T02:52:50.021Z,21.20
2019-06-08T02:55:18.460Z,21.20
2019-06-08T02:57:46.845Z,21.20
2019-06-08T03:00:15.238Z,21.20
2019-06-08T03:02:43.823Z,21.20
2019-06-08T03:05:12.213Z,21.20
2019-06-08T03:07:42.438Z,21.20
2019-06-08T03:10:12.145Z,21.30
2019-06-08T03:12:42.463Z,21.30
2019-06-08T03:15:10.540Z,21.30
2019-06-08T03:17:40.024Z,21.20
2019-06-08T03:20:08.968Z,21.20
2019-06-08T03:22:40.831Z,21.30
2019-06-08T03:25:07.414Z,21.20
2019-06-08T03:27:37.306Z,21.20
2019-06-08T03:30:16.018Z,21.30
2019-06-08T03:32:44.687Z,21.20
2019-06-08T03:35:07.221Z,21.20
2019-06-08T03:37:35.802Z,21.20
2019-06-08T03:40:05.056Z,21.20
2019-06-08T03:42:33.442Z,21.30
2019-06-08T03:45:01.844Z,21.30
2019-06-08T03:47:30.222Z,21.40
2019-06-08T03:49:58.620Z,21.40
2019-06-08T03:52:27.028Z,21.40
2019-06-08T03:54:55.407Z,21.40
2019-06-08T03:57:23.817Z,21.40
2019-06-08T03:59:52.222Z,21.50
2019-06-08T04:02:20.620Z,21.50
2019-06-08T04:04:50.015Z,21.50
2019-06-08T04:07:18.559Z,21.50
2019-06-08T04:09:46.940Z,21.50
2019-06-08T04:12:15.374Z,21.50
2019-06-08T04:14:44.548Z,21.60
2019-06-08T04:17:13.780Z,21.60
2019-06-08T04:20:04.395Z,21.70
2019-06-08T04:22:12.220Z,21.70
2019-06-08T04:24:42.320Z,21.80
2019-06-08T04:27:10.652Z,21.80
2019-06-08T04:29:39.605Z,21.90
2019-06-08T04:32:08.055Z,21.90
2019-06-08T04:34:36.442Z,22.00
2019-06-08T04:37:04.841Z,22.10
2019-06-08T04:39:33.265Z,22.20
2019-06-08T04:42:01.661Z,22.30
2019-06-08T04:44:30.028Z,22.30
2019-06-08T04:46:58.434Z,22.40
2019-06-08T04:49:26.814Z,22.40
2019-06-08T04:51:55.192Z,22.50
2019-06-08T04:54:23.595Z,22.60
2019-06-08T04:56:51.971Z,22.70
2019-06-08T04:59:20.377Z,22.80
2019-06-08T05:01:49.283Z,22.80
2019-06-08T05:04:17.865Z,22.80
2019-06-08T05:06:47.219Z,22.90
2019-06-08T05:09:15.636Z,23.00
2019-06-08T05:11:45.269Z,23.10
2019-06-08T05:14:13.774Z,23.20
2019-06-08T05:16:43.158Z,23.30
2019-06-08T05:19:12.415Z,23.30
2019-06-08T05:21:41.601Z,23.50
2019-06-08T05:24:10.076Z,23.60
2019-06-08T05:26:39.250Z,23.70
2019-06-08T05:29:07.815Z,23.80
2019-06-08T05:31:36.276Z,23.90
2019-06-08T05:34:04.722Z,24.00
2019-06-08T05:36:33.114Z,24.10
2019-06-08T05:39:01.558Z,24.10
2019-06-08T05:41:29.999Z,24.20
2019-06-08T05:43:58.388Z,24.20
2019-06-08T05:46:26.783Z,24.30
2019-06-08T05:48:55.187Z,24.40
2019-06-08T05:51:23.583Z,24.40
2019-06-08T05:53:52.003Z,24.30
2019-06-08T05:56:20.402Z,24.40
2019-06-08T05:58:50.164Z,24.40
2019-06-08T06:01:18.812Z,24.40
2019-06-08T06:03:48.622Z,24.40
2019-06-08T06:06:17.071Z,24.40
2019-06-08T06:08:46.586Z,24.50
2019-06-08T06:11:14.981Z,24.60
2019-06-08T06:13:43.377Z,24.60
2019-06-08T06:16:11.827Z,24.60
2019-06-08T06:18:40.950Z,24.70
2019-06-08T06:21:11.615Z,24.80
2019-06-08T06:23:39.543Z,24.80
2019-06-08T06:26:07.925Z,24.80
2019-06-08T06:28:36.307Z,24.80
2019-06-08T06:31:04.752Z,25.00
2019-06-08T06:33:33.137Z,25.00
2019-06-08T06:36:01.511Z,25.00
2019-06-08T06:38:29.933Z,25.00
2019-06-08T06:40:58.355Z,25.00
2019-06-08T06:43:26.721Z,25.00
2019-06-08T06:45:55.128Z,25.00
2019-06-08T06:48:23.806Z,25.00
2019-06-08T06:50:52.579Z,25.00
2019-06-08T06:53:21.009Z,25.10
2019-06-08T06:55:49.390Z,25.10
2019-06-08T06:58:17.840Z,25.10
2019-06-08T07:00:47.430Z,25.20
2019-06-08T07:03:15.935Z,25.20
2019-06-08T07:05:44.316Z,25.20
2019-06-08T07:08:12.749Z,25.20
2019-06-08T07:10:41.130Z,25.30
2019-06-08T07:13:09.523Z,25.30
2019-06-08T07:15:41.863Z,25.30
2019-06-08T07:18:07.976Z,25.30
2019-06-08T07:20:36.366Z,25.30
2019-06-08T07:23:06.011Z,25.40
2019-06-08T07:25:34.395Z,25.50
2019-06-08T07:28:02.771Z,25.50
2019-06-08T07:30:31.191Z,25.50
2019-06-08T07:32:59.589Z,25.50
2019-06-08T07:35:28.000Z,25.50
2019-06-08T07:37:56.387Z,25.60
2019-06-08T07:40:24.791Z,25.60
2019-06-08T07:42:54.861Z,25.70
2019-06-08T07:45:23.217Z,25.80
2019-06-08T07:47:52.033Z,25.80
2019-06-08T07:50:20.365Z,25.80
2019-06-08T07:52:49.919Z,25.80
2019-06-08T07:55:18.847Z,25.90
2019-06-08T07:57:48.579Z,25.90
2019-06-08T08:00:17.273Z,26.00
2019-06-08T08:02:45.695Z,26.00
2019-06-08T08:05:14.080Z,26.00
2019-06-08T08:07:42.479Z,26.00
2019-06-08T08:10:10.959Z,26.00
2019-06-08T08:12:39.331Z,26.10
2019-06-08T08:15:07.708Z,26.10
2019-06-08T08:17:36.096Z,26.20
2019-06-08T08:20:07.525Z,26.30
2019-06-08T08:22:38.003Z,26.30
2019-06-08T08:25:08.199Z,26.30
2019-06-08T08:27:37.536Z,26.40
2019-06-08T08:30:08.373Z,26.50
2019-06-08T08:32:38.038Z,26.50
2019-06-08T08:35:08.758Z,26.50
2019-06-08T08:37:38.086Z,26.50
2019-06-08T08:40:08.510Z,26.40
2019-06-08T08:42:38.756Z,26.50
2019-06-08T08:45:08.629Z,26.40
2019-06-08T08:47:38.711Z,26.50
2019-06-08T08:50:07.489Z,26.50
2019-06-08T08:52:39.873Z,26.40
2019-06-08T08:55:08.105Z,26.50
2019-06-08T08:57:38.535Z,26.60
2019-06-08T09:00:08.514Z,26.70
2019-06-08T09:02:37.453Z,26.80
2019-06-08T09:05:08.358Z,26.90
2019-06-08T09:07:38.253Z,27.00
2019-06-08T09:10:08.570Z,27.20
2019-06-08T09:12:37.702Z,27.30
2019-06-08T09:15:08.553Z,27.40
2019-06-08T09:17:38.826Z,27.40
2019-06-08T09:20:08.874Z,27.50
2019-06-08T09:22:50.170Z,27.50
2019-06-08T09:25:08.774Z,27.50
2019-06-08T09:27:38.278Z,27.50
2019-06-08T09:30:08.351Z,27.60
2019-06-08T09:32:38.186Z,27.40
2019-06-08T09:35:09.103Z,27.50
2019-06-08T09:37:37.588Z,27.50
2019-06-08T09:40:06.072Z,27.60
2019-06-08T09:42:34.522Z,27.50
2019-06-08T09:45:05.515Z,27.60
2019-06-08T09:47:33.812Z,27.60
2019-06-08T09:50:04.488Z,27.70
2019-06-08T09:52:32.338Z,27.70
2019-06-08T09:55:03.938Z,27.80
2019-06-08T09:57:30.781Z,27.90
2019-06-08T10:00:02.173Z,28.00
2019-06-08T10:02:29.225Z,28.10
2019-06-08T10:05:00.720Z,28.20
2019-06-08T10:07:28.609Z,28.40
2019-06-08T10:10:00.345Z,28.50
2019-06-08T10:12:28.213Z,28.70
2019-06-08T10:14:56.765Z,28.80
2019-06-08T10:17:27.760Z,28.90
2019-06-08T10:19:57.910Z,28.90
2019-06-08T10:22:25.255Z,28.90
2019-06-08T10:24:55.316Z,28.80
2019-06-08T10:27:23.682Z,28.90
2019-06-08T10:29:52.094Z,28.80
2019-06-08T10:32:22.295Z,28.70
2019-06-08T10:34:50.666Z,28.60
2019-06-08T10:37:19.101Z,28.60
2019-06-08T10:39:47.887Z,28.50
2019-06-08T10:42:18.028Z,28.40
2019-06-08T10:44:46.613Z,28.30
2019-06-08T10:47:14.982Z,28.20
2019-06-08T10:49:43.367Z,28.10
2019-06-08T10:52:12.295Z,28.00
2019-06-08T10:54:40.944Z,27.90
2019-06-08T10:57:09.929Z,27.80
2019-06-08T10:59:40.269Z,27.70
2019-06-08T11:02:13.476Z,27.60
2019-06-08T11:04:39.192Z,27.60
2019-06-08T11:07:15.335Z,27.50
2019-06-08T11:09:38.650Z,27.30
2019-06-08T11:12:11.186Z,27.30
2019-06-08T11:14:38.247Z,27.20
2019-06-08T11:17:09.389Z,26.80
2019-06-08T11:19:37.649Z,26.40
2019-06-08T11:22:12.159Z,26.20
2019-06-08T11:24:38.616Z,26.00
2019-06-08T11:27:08.238Z,25.90
2019-06-08T11:29:38.397Z,25.60
2019-06-08T11:32:09.316Z,25.20
2019-06-08T11:34:37.648Z,24.90
2019-06-08T11:37:09.365Z,24.60
2019-06-08T11:39:38.202Z,24.30
2019-06-08T11:42:09.853Z,24.20
2019-06-08T11:44:38.779Z,24.20
2019-06-08T11:47:09.742Z,24.20
2019-06-08T11:49:36.902Z,24.10
2019-06-08T11:52:06.714Z,24.10
2019-06-08T11:54:40.036Z,24.10
2019-06-08T11:57:05.430Z,24.10
2019-06-08T11:59:33.827Z,24.00
2019-06-08T12:02:03.444Z,24.10
2019-06-08T12:04:31.944Z,24.10
2019-06-08T12:07:00.320Z,24.10
2019-06-08T12:09:28.801Z,24.20
2019-06-08T12:11:58.081Z,24.20
2019-06-08T12:14:26.645Z,24.30
2019-06-08T12:16:55.075Z,24.40
2019-06-08T12:19:23.459Z,24.60
2019-06-08T12:21:51.847Z,24.70
2019-06-08T12:24:20.541Z,24.90
2019-06-08T12:26:54.808Z,25.10
2019-06-08T12:29:19.086Z,25.20
2019-06-08T12:31:47.751Z,25.30
2019-06-08T12:34:18.302Z,25.50
2019-06-08T12:36:48.097Z,25.70
2019-06-08T12:39:19.055Z,25.80
2019-06-08T12:41:47.895Z,26.10
2019-06-08T12:44:17.397Z,26.20
2019-06-08T12:46:48.462Z,26.40
2019-06-08T12:49:18.665Z,26.60
2019-06-08T12:51:50.690Z,26.80
2019-06-08T12:54:18.954Z,27.00
2019-06-08T12:56:47.971Z,27.20
2019-06-08T12:59:20.853Z,27.50
2019-06-08T13:01:48.435Z,27.70
2019-06-08T13:04:21.360Z,27.90
2019-06-08T13:06:48.339Z,28.10
2019-06-08T13:09:18.883Z,28.30
2019-06-08T13:11:50.481Z,28.40
2019-06-08T13:14:19.024Z,28.60
2019-06-08T13:16:48.931Z,28.80
2019-06-08T13:19:17.380Z,28.80
2019-06-08T13:21:45.877Z,29.10
2019-06-08T13:24:15.102Z,29.20
2019-06-08T13:26:43.683Z,29.40
2019-06-08T13:29:12.549Z,29.70
2019-06-08T13:31:42.127Z,30.00
2019-06-08T13:34:12.773Z,30.30
2019-06-08T13:36:42.318Z,30.60
2019-06-08T13:39:11.605Z,31.30
2019-06-08T13:41:40.486Z,32.20
2019-06-08T13:44:08.908Z,33.00
2019-06-08T13:46:37.946Z,34.10
2019-06-08T13:49:08.285Z,35.40
2019-06-08T13:51:38.435Z,36.30
2019-06-08T13:54:08.342Z,37.20
2019-06-08T13:56:38.484Z,36.60
2019-06-08T13:59:07.953Z,35.30
2019-06-08T14:01:37.817Z,34.30
2019-06-08T14:04:08.787Z,33.20
2019-06-08T14:06:36.437Z,32.40
2019-06-08T14:09:08.309Z,31.60
2019-06-08T14:11:36.552Z,30.90
2019-06-08T14:14:04.984Z,30.50
2019-06-08T14:16:33.315Z,30.20
2019-06-08T14:19:01.732Z,29.80
2019-06-08T14:21:38.781Z,29.60
2019-06-08T14:24:00.141Z,29.20
2019-06-08T14:26:29.632Z,28.80
2019-06-08T14:29:00.779Z,28.50
2019-06-08T14:31:31.545Z,28.00
2019-06-08T14:33:58.275Z,27.50
2019-06-08T14:36:28.668Z,27.10
2019-06-08T14:39:02.020Z,26.80
2019-06-08T14:41:29.293Z,26.70
2019-06-08T14:43:58.610Z,26.50
2019-06-08T14:46:28.757Z,26.30
2019-06-08T14:48:58.432Z,26.20
2019-06-08T14:51:30.143Z,26.10
2019-06-08T14:53:58.692Z,26.00
2019-06-08T14:56:29.667Z,25.90
2019-06-08T14:58:57.608Z,25.90
2019-06-08T15:01:29.696Z,25.80
2019-06-08T15:03:58.584Z,25.70
2019-06-08T15:06:31.066Z,25.50
2019-06-08T15:08:58.231Z,25.50
2019-06-08T15:11:28.825Z,25.50
2019-06-08T15:13:58.651Z,25.30
2019-06-08T15:16:30.122Z,25.30
2019-06-08T15:19:00.093Z,25.20
2019-06-08T15:21:30.123Z,25.00
2019-06-08T15:23:57.895Z,25.00
2019-06-08T15:26:35.895Z,24.90
2019-06-08T15:28:58.592Z,24.80
2019-06-08T15:31:29.519Z,24.80
2019-06-08T15:33:56.624Z,24.70
2019-06-08T15:36:25.194Z,24.80
2019-06-08T15:38:53.774Z,24.70
2019-06-08T15:41:24.270Z,24.60
2019-06-08T15:43:52.180Z,24.60
2019-06-08T15:46:20.623Z,24.50
2019-06-08T15:48:48.996Z,24.50
2019-06-08T15:51:17.416Z,24.50
2019-06-08T15:53:47.741Z,24.50
2019-06-08T15:56:15.828Z,24.50
2019-06-08T15:58:44.260Z,24.50
2019-06-08T16:01:14.732Z,24.60
2019-06-08T16:03:42.791Z,24.50
2019-06-08T16:06:11.405Z,24.40
2019-06-08T16:08:39.969Z,24.40
2019-06-08T16:11:08.575Z,24.40
2019-06-08T16:13:36.956Z,24.40
2019-06-08T16:16:05.512Z,24.40
2019-06-08T16:18:33.904Z,24.50
2019-06-08T16:21:02.316Z,24.60
2019-06-08T16:23:31.832Z,24.70
2019-06-08T16:26:00.336Z,24.80
2019-06-08T16:28:29.839Z,24.80
2019-06-08T16:30:58.255Z,24.80
2019-06-08T16:33:27.302Z,24.80
2019-06-08T16:35:56.114Z,24.70
2019-06-08T16:38:24.585Z,24.80
2019-06-08T16:40:53.812Z,24.80
2019-06-08T16:43:22.414Z,24.90
2019-06-08T16:45:51.128Z,25.10
2019-06-08T16:48:19.800Z,25.20
2019-06-08T16:50:48.366Z,25.30
2019-06-08T16:53:16.975Z,25.40
2019-06-08T16:55:45.433Z,25.40
2019-06-08T16:58:13.777Z,25.40
2019-06-08T17:00:42.464Z,25.40
2019-06-08T17:03:10.950Z,25.40
2019-06-08T17:05:39.366Z,25.30
2019-06-08T17:08:07.724Z,25.20
2019-06-08T17:10:36.897Z,25.30
2019-06-08T17:13:05.432Z,25.20
2019-06-08T17:15:34.108Z,25.20
2019-06-08T17:18:02.857Z,25.20
2019-06-08T17:20:32.057Z,25.20
2019-06-08T17:23:00.520Z,25.10
2019-06-08T17:25:28.911Z,25.00
2019-06-08T17:27:58.580Z,25.00
2019-06-08T17:30:26.916Z,24.90
2019-06-08T17:32:55.312Z,24.80
2019-06-08T17:35:23.696Z,24.80
2019-06-08T17:37:52.091Z,24.70
2019-06-08T17:40:20.500Z,24.70
2019-06-08T17:42:48.959Z,24.60
2019-06-08T17:45:17.340Z,24.60
2019-06-08T17:47:45.804Z,24.50
2019-06-08T17:50:14.277Z,24.40
2019-06-08T17:52:43.066Z,24.40
2019-06-08T17:55:11.724Z,24.40
2019-06-08T17:57:48.515Z,24.30
2019-06-08T18:00:11.982Z,24.20
2019-06-08T18:02:43.375Z,24.10
2019-06-08T18:05:10.961Z,24.10
2019-06-08T18:07:41.969Z,24.00
2019-06-08T18:10:10.098Z,23.90
2019-06-08T18:12:41.193Z,23.90
2019-06-08T18:15:09.098Z,23.80
2019-06-08T18:17:40.147Z,23.80
2019-06-08T18:20:13.236Z,23.70
2019-06-08T18:22:44.416Z,23.70
2019-06-08T18:25:11.721Z,23.70
2019-06-08T18:27:42.395Z,23.60
2019-06-08T18:30:11.728Z,23.60
2019-06-08T18:32:41.831Z,23.60
2019-06-08T18:35:10.544Z,23.50
2019-06-08T18:37:40.907Z,23.50
2019-06-08T18:40:10.052Z,23.50
2019-06-08T18:42:40.014Z,23.50
2019-06-08T18:45:08.525Z,23.40
2019-06-08T18:47:38.794Z,23.40
2019-06-08T18:50:09.056Z,23.30
2019-06-08T18:52:40.574Z,23.30
2019-06-08T18:55:08.331Z,23.20
2019-06-08T18:57:38.462Z,23.20
2019-06-08T19:00:11.803Z,23.10
2019-06-08T19:02:41.974Z,23.10
2019-06-08T19:05:10.252Z,23.00
2019-06-08T19:07:39.146Z,23.00
2019-06-08T19:10:07.667Z,23.00
2019-06-08T19:12:38.351Z,23.00
2019-06-08T19:15:11.094Z,23.00
2019-06-08T19:17:39.754Z,22.90
2019-06-08T19:20:06.659Z,22.80
2019-06-08T19:22:35.076Z,22.80
2019-06-08T19:25:04.307Z,22.70
2019-06-08T19:27:32.681Z,22.70
2019-06-08T19:30:01.073Z,22.80
2019-06-08T19:32:29.512Z,22.70
2019-06-08T19:34:58.106Z,22.80
2019-06-08T19:37:28.057Z,22.80
2019-06-08T19:39:57.700Z,22.70
2019-06-08T19:42:37.077Z,22.70
2019-06-08T19:45:04.871Z,22.60
2019-06-08T19:47:27.282Z,22.60
2019-06-08T19:49:57.758Z,22.60
2019-06-08T19:52:26.148Z,22.60
2019-06-08T19:54:54.721Z,22.60
2019-06-08T19:57:23.152Z,22.50
2019-06-08T19:59:51.524Z,22.50
2019-06-08T20:02:19.930Z,22.50
2019-06-08T20:04:48.928Z,22.50
2019-06-08T20:07:17.844Z,22.50
2019-06-08T20:09:48.183Z,22.50
2019-06-08T20:12:18.455Z,22.40
2019-06-08T20:14:48.426Z,22.40
2019-06-08T20:17:17.214Z,22.40
2019-06-08T20:19:48.010Z,22.30
2019-06-08T20:22:18.301Z,22.30
2019-06-08T20:24:51.445Z,22.20
2019-06-08T20:27:17.311Z,22.10
2019-06-08T20:29:47.863Z,22.10
2019-06-08T20:32:18.008Z,22.00
2019-06-08T20:34:49.040Z,21.90
2019-06-08T20:37:17.564Z,22.00
2019-06-08T20:39:59.276Z,21.90
2019-06-08T20:42:17.342Z,21.90
2019-06-08T20:44:46.675Z,21.90
2019-06-08T20:47:17.916Z,21.80
2019-06-08T20:49:48.905Z,21.80
2019-06-08T20:52:17.790Z,21.70
2019-06-08T20:54:48.966Z,21.60
2019-06-08T20:57:17.034Z,21.60
2019-06-08T20:59:45.692Z,21.60
2019-06-08T21:02:14.082Z,21.50
2019-06-08T21:04:44.460Z,21.50
2019-06-08T21:07:12.528Z,21.40
2019-06-08T21:09:40.904Z,21.40
2019-06-08T21:12:09.281Z,21.30
2019-06-08T21:14:37.989Z,21.30
2019-06-08T21:17:07.605Z,21.30
2019-06-08T21:19:36.161Z,21.20
2019-06-08T21:22:04.552Z,21.20
2019-06-08T21:24:32.993Z,21.10
2019-06-08T21:27:01.394Z,21.10
2019-06-08T21:29:46.892Z,21.10
2019-06-08T21:32:02.283Z,21.00
2019-06-08T21:34:29.856Z,21.00
2019-06-08T21:37:00.670Z,20.90
2019-06-08T21:39:28.486Z,20.80
2019-06-08T21:42:01.344Z,20.70
2019-06-08T21:44:27.850Z,20.70
2019-06-08T21:47:00.779Z,20.70
2019-06-08T21:49:27.681Z,20.60
2019-06-08T21:51:58.854Z,20.50
2019-06-08T21:54:27.248Z,20.50
2019-06-08T21:56:58.912Z,20.50
2019-06-08T21:59:25.683Z,20.50
2019-06-08T22:01:55.054Z,20.40
2019-06-08T22:04:24.106Z,20.30
2019-06-08T22:06:52.513Z,20.30
2019-06-08T22:09:20.904Z,20.30
2019-06-08T22:11:50.934Z,20.30
2019-06-08T22:14:19.352Z,20.20
2019-06-08T22:16:47.784Z,20.20
2019-06-08T22:19:17.939Z,20.10
2019-06-08T22:21:48.004Z,20.10
2019-06-08T22:24:17.169Z,20.10
2019-06-08T22:26:45.620Z,20.00
2019-06-08T22:29:14.023Z,19.90
2019-06-08T22:31:42.402Z,19.90
2019-06-08T22:34:10.804Z,19.90
2019-06-08T22:36:39.216Z,19.90
2019-06-08T22:39:08.262Z,20.00
2019-06-08T22:41:37.267Z,19.90
2019-06-08T22:44:08.102Z,19.80
2019-06-08T22:46:37.526Z,19.80
2019-06-08T22:49:07.833Z,19.80
2019-06-08T22:51:38.078Z,19.70
2019-06-08T22:54:08.006Z,19.70
2019-06-08T22:56:37.222Z,19.70
2019-06-08T22:59:06.795Z,19.70
2019-06-08T23:01:38.220Z,19.60
2019-06-08T23:04:08.708Z,19.60
2019-06-08T23:06:38.472Z,19.50
2019-06-08T23:09:08.703Z,19.50
2019-06-08T23:11:37.675Z,19.50
2019-06-08T23:14:12.766Z,19.50
2019-06-08T23:16:36.112Z,19.50
2019-06-08T23:19:05.189Z,19.50
2019-06-08T23:21:33.604Z,19.40
2019-06-08T23:24:02.869Z,19.40
2019-06-08T23:26:32.068Z,19.50
2019-06-08T23:29:00.448Z,19.50
2019-06-08T23:31:29.179Z,19.50
2019-06-08T23:34:00.329Z,19.50
2019-06-08T23:36:46.514Z,19.40
2019-06-08T23:38:59.000Z,19.30
2019-06-08T23:41:27.594Z,19.30
2019-06-08T23:43:57.368Z,19.30
2019-06-08T23:46:27.340Z,19.30
2019-06-08T23:48:58.912Z,19.30
2019-06-08T23:51:27.518Z,19.30
2019-06-08T23:53:58.298Z,19.30
2019-06-08T23:56:27.788Z,19.30
2019-06-08T23:58:56.334Z,19.20
